RJTQ(METAR)
08/14 17:00
RJTQ 140800Z 21004KT 9999 FEW030 30/26 Q1008 RMK A2978=
戻る
トップページへ戻る
IMOC Co,.Ltd.